TimeMDT,TemperatureF,Dew PointF,Humidity,Sea Level PressureIn,VisibilityMPH,Wind Direction,Wind SpeedMPH,Gust SpeedMPH,PrecipitationIn,Events,Conditions,WindDirDegrees,DateUTC
12:53 AM,57.0,43.0,59,30.01,10.0,ESE,4.6,-,N/A,,Clear,110,2013-08-10 06:53:00
1:53 AM,55.0,44.1,67,30.01,10.0,Calm,Calm,-,N/A,,Clear,0,2013-08-10 07:53:00
2:53 AM,55.0,45.0,69,30.03,10.0,Calm,Calm,-,N/A,,Clear,0,2013-08-10 08:53:00
3:53 AM,57.9,44.1,60,30.02,10.0,NNW,3.5,-,N/A,,Clear,330,2013-08-10 09:53:00
4:53 AM,57.9,43.0,58,30.03,10.0,Variable,4.6,-,N/A,,Clear,0,2013-08-10 10:53:00
5:53 AM,54.0,44.1,69,30.05,10.0,Calm,Calm,-,N/A,,Clear,0,2013-08-10 11:53:00
6:53 AM,57.9,43.0,58,30.06,10.0,WNW,4.6,-,N/A,,Clear,290,2013-08-10 12:53:00
7:53 AM,70.0,43.0,38,30.04,10.0,SW,5.8,-,N/A,,Clear,220,2013-08-10 13:53:00
8:53 AM,71.1,44.1,38,30.10,10.0,SE,3.5,-,N/A,,Clear,140,2013-08-10 14:53:00
9:53 AM,71.1,45.0,39,30.12,10.0,SSE,8.1,-,N/A,,Clear,160,2013-08-10 15:53:00
10:53 AM,75.0,45.0,34,30.11,10.0,SE,12.7,17.3,N/A,,Clear,140,2013-08-10 16:53:00
11:53 AM,77.0,46.9,34,30.12,10.0,West,5.8,-,N/A,,Overcast,270,2013-08-10 17:53:00
12:05 PM,78.8,46.4,32,30.32,10.0,WSW,6.9,-,N/A,Thunderstorm,Mostly Cloudy,250,2013-08-10 18:05:00
12:33 PM,78.8,48.2,34,30.30,10.0,Variable,3.5,-,N/A,,Clear,0,2013-08-10 18:33:00
12:53 PM,80.1,46.9,31,30.07,10.0,Calm,Calm,-,N/A,,Clear,0,2013-08-10 18:53:00
1:53 PM,77.0,46.9,34,30.06,10.0,NNE,6.9,-,N/A,,Scattered Clouds,20,2013-08-10 19:53:00
2:00 PM,75.2,46.4,36,30.29,9.0,SSE,34.5,47.2,N/A,Thunderstorm,Squalls,160,2013-08-10 20:00:00
2:09 PM,64.4,51.8,64,30.32,2.5,WSW,31.1,62.1,0.00,Rain-Thunderstorm,Light Thunderstorms and Rain,240,2013-08-10 20:09:00
2:13 PM,60.8,51.8,72,30.35,6.0,SW,28.8,52.9,0.00,Rain-Thunderstorm,Light Thunderstorms and Rain,230,2013-08-10 20:13:00
2:20 PM,57.2,51.8,82,30.36,2.0,SW,18.4,46.0,0.09,Rain-Thunderstorm,Heavy Thunderstorms and Rain,230,2013-08-10 20:20:00
2:31 PM,57.2,51.8,82,30.36,3.0,WNW,13.8,26.5,0.16,Rain-Thunderstorm,Thunderstorms and Rain,300,2013-08-10 20:31:00
2:41 PM,59.0,51.8,77,30.37,10.0,West,10.4,24.2,0.16,Rain-Thunderstorm,Light Thunderstorms and Rain,270,2013-08-10 20:41:00
2:53 PM,57.9,53.1,84,30.23,10.0,West,9.2,18.4,0.16,Rain-Thunderstorm,Light Thunderstorms and Rain,270,2013-08-10 20:53:00
3:18 PM,59.0,51.8,77,30.39,10.0,NE,8.1,21.9,0.00,,Scattered Clouds,50,2013-08-10 21:18:00
3:53 PM,59.0,52.0,78,30.21,10.0,NE,11.5,-,0.00,,Partly Cloudy,50,2013-08-10 21:53:00
4:53 PM,61.0,52.0,72,30.20,10.0,ENE,11.5,-,N/A,,Partly Cloudy,70,2013-08-10 22:53:00
5:53 PM,64.9,50.0,58,30.14,10.0,East,13.8,24.2,N/A,Thunderstorm,Scattered Clouds,90,2013-08-10 23:53:00
6:35 PM,66.2,48.2,52,30.31,10.0,ENE,6.9,-,N/A,,Partly Cloudy,60,2013-08-11 00:35:00
6:53 PM,69.1,48.9,49,30.13,10.0,South,8.1,-,N/A,,Partly Cloudy,180,2013-08-11 00:53:00
7:53 PM,64.0,46.9,54,30.12,10.0,SSE,27.6,33.4,N/A,,Clear,150,2013-08-11 01:53:00
8:53 PM,63.0,45.0,52,30.12,10.0,Variable,5.8,19.6,N/A,,Partly Cloudy,0,2013-08-11 02:53:00
9:53 PM,60.1,46.0,60,30.14,10.0,Calm,Calm,-,N/A,,Clear,0,2013-08-11 03:53:00
10:53 PM,60.1,46.0,60,30.14,10.0,West,6.9,-,N/A,,Clear,270,2013-08-11 04:53:00
11:53 PM,55.0,46.0,72,30.15,10.0,Calm,Calm,-,N/A,,Clear,0,2013-08-11 05:53:00